sensor_id;sensor_type;location;lat;lon;timestamp;temperature;humidity
65239;SHT30;51827;51.186;6.926;2022-11-21T00:00:37;18.42;56.26
65239;SHT30;51827;51.186;6.926;2022-11-21T00:01:38;18.42;56.26
65239;SHT30;51827;51.186;6.926;2022-11-21T00:02:38;18.41;56.26
65239;SHT30;51827;51.186;6.926;2022-11-21T00:03:38;18.40;56.31
65239;SHT30;51827;51.186;6.926;2022-11-21T00:04:38;18.40;56.30
65239;SHT30;51827;51.186;6.926;2022-11-21T00:05:44;18.42;56.25
65239;SHT30;51827;51.186;6.926;2022-11-21T00:06:44;18.42;56.29
65239;SHT30;51827;51.186;6.926;2022-11-21T00:07:44;18.40;56.27
65239;SHT30;51827;51.186;6.926;2022-11-21T00:08:45;18.44;56.26
65239;SHT30;51827;51.186;6.926;2022-11-21T00:09:45;18.42;56.24
65239;SHT30;51827;51.186;6.926;2022-11-21T00:10:46;18.41;56.27
65239;SHT30;51827;51.186;6.926;2022-11-21T00:11:49;18.40;56.28
65239;SHT30;51827;51.186;6.926;2022-11-21T00:12:54;18.40;56.23
65239;SHT30;51827;51.186;6.926;2022-11-21T00:13:55;18.41;56.33
65239;SHT30;51827;51.186;6.926;2022-11-21T00:14:55;18.40;56.28
65239;SHT30;51827;51.186;6.926;2022-11-21T00:15:55;18.41;56.34
65239;SHT30;51827;51.186;6.926;2022-11-21T00:16:55;18.40;56.30
65239;SHT30;51827;51.186;6.926;2022-11-21T00:17:55;18.41;56.28
65239;SHT30;51827;51.186;6.926;2022-11-21T00:18:56;18.38;56.29
65239;SHT30;51827;51.186;6.926;2022-11-21T00:19:57;18.40;56.29
65239;SHT30;51827;51.186;6.926;2022-11-21T00:21:02;18.38;56.34
65239;SHT30;51827;51.186;6.926;2022-11-21T00:22:03;18.38;56.30
65239;SHT30;51827;51.186;6.926;2022-11-21T00:23:03;18.40;56.26
65239;SHT30;51827;51.186;6.926;2022-11-21T00:24:04;18.38;56.28
65239;SHT30;51827;51.186;6.926;2022-11-21T00:25:05;18.37;56.32
65239;SHT30;51827;51.186;6.926;2022-11-21T00:26:06;18.38;56.28
65239;SHT30;51827;51.186;6.926;2022-11-21T00:27:06;18.40;56.26
65239;SHT30;51827;51.186;6.926;2022-11-21T00:28:07;18.38;56.23
65239;SHT30;51827;51.186;6.926;2022-11-21T00:29:07;18.38;56.26
65239;SHT30;51827;51.186;6.926;2022-11-21T00:30:09;18.37;56.28
65239;SHT30;51827;51.186;6.926;2022-11-21T00:31:21;18.37;56.26
65239;SHT30;51827;51.186;6.926;2022-11-21T00:32:21;18.37;56.32
65239;SHT30;51827;51.186;6.926;2022-11-21T00:33:21;18.38;56.27
65239;SHT30;51827;51.186;6.926;2022-11-21T00:34:22;18.38;56.28
65239;SHT30;51827;51.186;6.926;2022-11-21T00:35:22;18.40;56.22
65239;SHT30;51827;51.186;6.926;2022-11-21T00:36:22;18.38;56.22
65239;SHT30;51827;51.186;6.926;2022-11-21T00:37:22;18.37;56.31
65239;SHT30;51827;51.186;6.926;2022-11-21T00:38:23;18.40;56.25
65239;SHT30;51827;51.186;6.926;2022-11-21T00:39:23;18.38;56.21
65239;SHT30;51827;51.186;6.926;2022-11-21T00:40:23;18.37;56.23
65239;SHT30;51827;51.186;6.926;2022-11-21T00:41:23;18.38;56.23
65239;SHT30;51827;51.186;6.926;2022-11-21T00:42:24;18.38;56.22
65239;SHT30;51827;51.186;6.926;2022-11-21T00:43:24;18.40;56.20
65239;SHT30;51827;51.186;6.926;2022-11-21T00:44:24;18.40;56.22
65239;SHT30;51827;51.186;6.926;2022-11-21T00:45:24;18.38;56.20
65239;SHT30;51827;51.186;6.926;2022-11-21T00:46:25;18.38;56.24
65239;SHT30;51827;51.186;6.926;2022-11-21T00:47:25;18.40;56.24
65239;SHT30;51827;51.186;6.926;2022-11-21T00:48:25;18.38;56.24
65239;SHT30;51827;51.186;6.926;2022-11-21T00:49:26;18.38;56.19
65239;SHT30;51827;51.186;6.926;2022-11-21T00:50:26;18.37;56.19
65239;SHT30;51827;51.186;6.926;2022-11-21T00:51:26;18.38;56.20
65239;SHT30;51827;51.186;6.926;2022-11-21T00:52:26;18.37;56.20
65239;SHT30;51827;51.186;6.926;2022-11-21T00:53:27;18.38;56.12
65239;SHT30;51827;51.186;6.926;2022-11-21T00:54:28;18.38;56.12
65239;SHT30;51827;51.186;6.926;2022-11-21T00:55:28;18.38;56.13
65239;SHT30;51827;51.186;6.926;2022-11-21T00:56:28;18.38;56.20
65239;SHT30;51827;51.186;6.926;2022-11-21T00:57:28;18.38;56.18
65239;SHT30;51827;51.186;6.926;2022-11-21T00:58:29;18.38;56.16
65239;SHT30;51827;51.186;6.926;2022-11-21T00:59:29;18.37;56.14
65239;SHT30;51827;51.186;6.926;2022-11-21T01:00:29;18.38;56.09
65239;SHT30;51827;51.186;6.926;2022-11-21T01:01:29;18.38;56.12
65239;SHT30;51827;51.186;6.926;2022-11-21T01:02:31;18.37;56.18
65239;SHT30;51827;51.186;6.926;2022-11-21T01:03:34;18.37;56.12
65239;SHT30;51827;51.186;6.926;2022-11-21T01:04:35;18.37;56.14
65239;SHT30;51827;51.186;6.926;2022-11-21T01:05:35;18.38;56.17
65239;SHT30;51827;51.186;6.926;2022-11-21T01:06:38;18.38;56.13
65239;SHT30;51827;51.186;6.926;2022-11-21T01:07:39;18.37;56.13
65239;SHT30;51827;51.186;6.926;2022-11-21T01:08:42;18.37;56.05
65239;SHT30;51827;51.186;6.926;2022-11-21T01:09:42;18.35;56.08
65239;SHT30;51827;51.186;6.926;2022-11-21T01:10:42;18.37;56.08
65239;SHT30;51827;51.186;6.926;2022-11-21T01:11:42;18.37;56.10
65239;SHT30;51827;51.186;6.926;2022-11-21T01:12:43;18.37;56.09
65239;SHT30;51827;51.186;6.926;2022-11-21T01:13:44;18.37;56.03
65239;SHT30;51827;51.186;6.926;2022-11-21T01:14:44;18.34;56.09
65239;SHT30;51827;51.186;6.926;2022-11-21T01:15:44;18.38;56.05
65239;SHT30;51827;51.186;6.926;2022-11-21T01:16:44;18.34;56.08
65239;SHT30;51827;51.186;6.926;2022-11-21T01:17:45;18.32;56.10
65239;SHT30;51827;51.186;6.926;2022-11-21T01:18:45;18.34;56.04
65239;SHT30;51827;51.186;6.926;2022-11-21T01:19:46;18.37;56.07
65239;SHT30;51827;51.186;6.926;2022-11-21T01:20:46;18.37;56.05
65239;SHT30;51827;51.186;6.926;2022-11-21T01:21:46;18.37;56.07
65239;SHT30;51827;51.186;6.926;2022-11-21T01:22:46;18.34;56.03
65239;SHT30;51827;51.186;6.926;2022-11-21T01:23:47;18.37;56.07
65239;SHT30;51827;51.186;6.926;2022-11-21T01:24:48;18.34;56.04
65239;SHT30;51827;51.186;6.926;2022-11-21T01:25:48;18.34;56.04
65239;SHT30;51827;51.186;6.926;2022-11-21T01:26:48;18.32;56.07
65239;SHT30;51827;51.186;6.926;2022-11-21T01:27:49;18.35;56.04
65239;SHT30;51827;51.186;6.926;2022-11-21T01:28:49;18.37;56.03
65239;SHT30;51827;51.186;6.926;2022-11-21T01:29:50;18.34;56.06
65239;SHT30;51827;51.186;6.926;2022-11-21T01:30:50;18.34;56.04
65239;SHT30;51827;51.186;6.926;2022-11-21T01:31:51;18.31;56.04
65239;SHT30;51827;51.186;6.926;2022-11-21T01:32:51;18.35;56.05
65239;SHT30;51827;51.186;6.926;2022-11-21T01:33:51;18.37;56.04
65239;SHT30;51827;51.186;6.926;2022-11-21T01:34:52;18.34;56.05
65239;SHT30;51827;51.186;6.926;2022-11-21T01:35:52;18.37;55.99
65239;SHT30;51827;51.186;6.926;2022-11-21T01:36:52;18.34;56.00
65239;SHT30;51827;51.186;6.926;2022-11-21T01:37:52;18.34;55.97
65239;SHT30;51827;51.186;6.926;2022-11-21T01:38:56;18.32;55.96
65239;SHT30;51827;51.186;6.926;2022-11-21T01:39:56;18.38;55.98
65239;SHT30;51827;51.186;6.926;2022-11-21T01:40:56;18.35;56.03
65239;SHT30;51827;51.186;6.926;2022-11-21T01:41:56;18.37;55.97
65239;SHT30;51827;51.186;6.926;2022-11-21T01:43:05;18.37;55.94
65239;SHT30;51827;51.186;6.926;2022-11-21T01:44:22;18.37;55.94
65239;SHT30;51827;51.186;6.926;2022-11-21T01:45:52;18.37;55.95
65239;SHT30;51827;51.186;6.926;2022-11-21T01:46:52;18.35;55.92
65239;SHT30;51827;51.186;6.926;2022-11-21T01:47:53;18.34;55.90
65239;SHT30;51827;51.186;6.926;2022-11-21T01:48:54;18.34;55.89
65239;SHT30;51827;51.186;6.926;2022-11-21T01:49:56;18.32;55.96
65239;SHT30;51827;51.186;6.926;2022-11-21T01:50:59;18.35;55.94
65239;SHT30;51827;51.186;6.926;2022-11-21T01:53:24;18.32;55.94
65239;SHT30;51827;51.186;6.926;2022-11-21T01:54:32;18.32;55.94
65239;SHT30;51827;51.186;6.926;2022-11-21T01:55:35;18.34;55.85
65239;SHT30;51827;51.186;6.926;2022-11-21T01:57:47;18.34;55.92
65239;SHT30;51827;51.186;6.926;2022-11-21T01:58:50;18.31;55.89
65239;SHT30;51827;51.186;6.926;2022-11-21T01:59:56;18.32;55.88
65239;SHT30;51827;51.186;6.926;2022-11-21T02:00:58;18.30;55.93
65239;SHT30;51827;51.186;6.926;2022-11-21T02:02:00;18.31;55.94
65239;SHT30;51827;51.186;6.926;2022-11-21T02:03:07;18.34;55.88
65239;SHT30;51827;51.186;6.926;2022-11-21T02:04:09;18.31;55.88
65239;SHT30;51827;51.186;6.926;2022-11-21T02:05:14;18.31;55.87
65239;SHT30;51827;51.186;6.926;2022-11-21T02:06:15;18.34;55.91
65239;SHT30;51827;51.186;6.926;2022-11-21T02:07:17;18.31;55.92
65239;SHT30;51827;51.186;6.926;2022-11-21T02:08:19;18.32;55.83
65239;SHT30;51827;51.186;6.926;2022-11-21T02:09:20;18.32;55.87
65239;SHT30;51827;51.186;6.926;2022-11-21T02:10:21;18.34;55.86
65239;SHT30;51827;51.186;6.926;2022-11-21T02:12:51;18.34;55.86
65239;SHT30;51827;51.186;6.926;2022-11-21T02:13:52;18.34;55.82
65239;SHT30;51827;51.186;6.926;2022-11-21T02:14:53;18.32;55.80
65239;SHT30;51827;51.186;6.926;2022-11-21T02:15:54;18.31;55.82
65239;SHT30;51827;51.186;6.926;2022-11-21T02:16:57;18.32;55.87
65239;SHT30;51827;51.186;6.926;2022-11-21T02:17:59;18.34;55.79
65239;SHT30;51827;51.186;6.926;2022-11-21T02:18:59;18.34;55.82
65239;SHT30;51827;51.186;6.926;2022-11-21T02:20:03;18.28;55.83
65239;SHT30;51827;51.186;6.926;2022-11-21T02:23:59;18.31;55.80
65239;SHT30;51827;51.186;6.926;2022-11-21T02:25:10;18.31;55.82
65239;SHT30;51827;51.186;6.926;2022-11-21T02:26:11;18.32;55.84
65239;SHT30;51827;51.186;6.926;2022-11-21T02:27:11;18.28;55.85
65239;SHT30;51827;51.186;6.926;2022-11-21T02:28:14;18.27;55.88
65239;SHT30;51827;51.186;6.926;2022-11-21T02:29:15;18.27;55.82
65239;SHT30;51827;51.186;6.926;2022-11-21T02:30:16;18.30;55.77
65239;SHT30;51827;51.186;6.926;2022-11-21T02:31:17;18.30;55.79
65239;SHT30;51827;51.186;6.926;2022-11-21T02:32:22;18.28;55.84
65239;SHT30;51827;51.186;6.926;2022-11-21T02:33:22;18.28;55.84
65239;SHT30;51827;51.186;6.926;2022-11-21T02:34:22;18.27;55.83
65239;SHT30;51827;51.186;6.926;2022-11-21T02:35:23;18.27;55.81
65239;SHT30;51827;51.186;6.926;2022-11-21T02:36:46;18.28;55.81
65239;SHT30;51827;51.186;6.926;2022-11-21T02:37:52;18.28;55.80
65239;SHT30;51827;51.186;6.926;2022-11-21T02:38:53;18.32;55.84
65239;SHT30;51827;51.186;6.926;2022-11-21T02:39:54;18.30;55.78
65239;SHT30;51827;51.186;6.926;2022-11-21T02:41:06;18.27;55.75
65239;SHT30;51827;51.186;6.926;2022-11-21T02:42:25;18.27;55.82
65239;SHT30;51827;51.186;6.926;2022-11-21T02:43:35;18.28;55.73
65239;SHT30;51827;51.186;6.926;2022-11-21T02:45:51;18.32;55.74
65239;SHT30;51827;51.186;6.926;2022-11-21T02:46:51;18.28;55.79
65239;SHT30;51827;51.186;6.926;2022-11-21T02:47:53;18.25;55.76
65239;SHT30;51827;51.186;6.926;2022-11-21T02:48:55;18.25;55.75
65239;SHT30;51827;51.186;6.926;2022-11-21T02:51:01;18.28;55.77
65239;SHT30;51827;51.186;6.926;2022-11-21T02:52:01;18.28;55.73
65239;SHT30;51827;51.186;6.926;2022-11-21T02:53:02;18.28;55.73
65239;SHT30;51827;51.186;6.926;2022-11-21T02:54:03;18.30;55.69
65239;SHT30;51827;51.186;6.926;2022-11-21T02:55:04;18.28;55.67
65239;SHT30;51827;51.186;6.926;2022-11-21T02:56:04;18.30;55.70
65239;SHT30;51827;51.186;6.926;2022-11-21T02:57:04;18.30;55.70
65239;SHT30;51827;51.186;6.926;2022-11-21T02:58:05;18.28;55.69
65239;SHT30;51827;51.186;6.926;2022-11-21T02:59:05;18.30;55.67
65239;SHT30;51827;51.186;6.926;2022-11-21T03:00:07;18.27;55.66
65239;SHT30;51827;51.186;6.926;2022-11-21T03:01:07;18.28;55.71
65239;SHT30;51827;51.186;6.926;2022-11-21T03:02:08;18.28;55.65
65239;SHT30;51827;51.186;6.926;2022-11-21T03:03:08;18.28;55.68
65239;SHT30;51827;51.186;6.926;2022-11-21T03:04:08;18.28;55.61
65239;SHT30;51827;51.186;6.926;2022-11-21T03:05:11;18.31;55.66
65239;SHT30;51827;51.186;6.926;2022-11-21T03:06:11;18.30;55.61
65239;SHT30;51827;51.186;6.926;2022-11-21T03:07:12;18.28;55.62
65239;SHT30;51827;51.186;6.926;2022-11-21T03:08:12;18.32;55.60
65239;SHT30;51827;51.186;6.926;2022-11-21T03:09:12;18.27;55.64
65239;SHT30;51827;51.186;6.926;2022-11-21T03:10:13;18.25;55.58
65239;SHT30;51827;51.186;6.926;2022-11-21T03:11:13;18.28;55.62
65239;SHT30;51827;51.186;6.926;2022-11-21T03:12:13;18.31;55.62
65239;SHT30;51827;51.186;6.926;2022-11-21T03:13:14;18.30;55.60
65239;SHT30;51827;51.186;6.926;2022-11-21T03:14:14;18.28;55.61
65239;SHT30;51827;51.186;6.926;2022-11-21T03:15:14;18.28;55.54
65239;SHT30;51827;51.186;6.926;2022-11-21T03:16:15;18.28;55.55
65239;SHT30;51827;51.186;6.926;2022-11-21T03:17:15;18.28;55.61
65239;SHT30;51827;51.186;6.926;2022-11-21T03:18:15;18.28;55.56
65239;SHT30;51827;51.186;6.926;2022-11-21T03:19:15;18.28;55.58
65239;SHT30;51827;51.186;6.926;2022-11-21T03:20:16;18.27;55.54
65239;SHT30;51827;51.186;6.926;2022-11-21T03:21:16;18.28;55.52
65239;SHT30;51827;51.186;6.926;2022-11-21T03:22:16;18.28;55.52
65239;SHT30;51827;51.186;6.926;2022-11-21T03:23:17;18.27;55.58
65239;SHT30;51827;51.186;6.926;2022-11-21T03:24:17;18.25;55.56
65239;SHT30;51827;51.186;6.926;2022-11-21T03:25:18;18.27;55.51
65239;SHT30;51827;51.186;6.926;2022-11-21T03:26:18;18.28;55.50
65239;SHT30;51827;51.186;6.926;2022-11-21T03:27:18;18.24;55.53
65239;SHT30;51827;51.186;6.926;2022-11-21T03:28:19;18.27;55.54
65239;SHT30;51827;51.186;6.926;2022-11-21T03:29:19;18.25;55.53
65239;SHT30;51827;51.186;6.926;2022-11-21T03:30:20;18.25;55.57
65239;SHT30;51827;51.186;6.926;2022-11-21T03:31:21;18.27;55.55
65239;SHT30;51827;51.186;6.926;2022-11-21T03:32:21;18.27;55.50
65239;SHT30;51827;51.186;6.926;2022-11-21T03:33:21;18.30;55.53
65239;SHT30;51827;51.186;6.926;2022-11-21T03:34:22;18.27;55.57
65239;SHT30;51827;51.186;6.926;2022-11-21T03:35:22;18.25;55.53
65239;SHT30;51827;51.186;6.926;2022-11-21T03:36:23;18.25;55.53
65239;SHT30;51827;51.186;6.926;2022-11-21T03:37:23;18.27;55.54
65239;SHT30;51827;51.186;6.926;2022-11-21T03:38:23;18.25;55.48
65239;SHT30;51827;51.186;6.926;2022-11-21T03:39:23;18.25;55.54
65239;SHT30;51827;51.186;6.926;2022-11-21T03:40:24;18.27;55.45
65239;SHT30;51827;51.186;6.926;2022-11-21T03:41:25;18.27;55.51
65239;SHT30;51827;51.186;6.926;2022-11-21T03:42:26;18.27;55.54
65239;SHT30;51827;51.186;6.926;2022-11-21T03:43:26;18.24;55.48
65239;SHT30;51827;51.186;6.926;2022-11-21T03:44:26;18.25;55.56
65239;SHT30;51827;51.186;6.926;2022-11-21T03:45:26;18.25;55.52
65239;SHT30;51827;51.186;6.926;2022-11-21T03:46:29;18.24;55.55
65239;SHT30;51827;51.186;6.926;2022-11-21T03:47:29;18.25;55.48
65239;SHT30;51827;51.186;6.926;2022-11-21T03:48:29;18.24;55.53
65239;SHT30;51827;51.186;6.926;2022-11-21T03:49:30;18.21;55.53
65239;SHT30;51827;51.186;6.926;2022-11-21T03:50:30;18.22;55.56
65239;SHT30;51827;51.186;6.926;2022-11-21T03:51:30;18.21;55.52
65239;SHT30;51827;51.186;6.926;2022-11-21T03:52:31;18.21;55.50
65239;SHT30;51827;51.186;6.926;2022-11-21T03:53:31;18.24;55.52
65239;SHT30;51827;51.186;6.926;2022-11-21T03:54:31;18.24;55.49
65239;SHT30;51827;51.186;6.926;2022-11-21T03:55:32;18.24;55.50
65239;SHT30;51827;51.186;6.926;2022-11-21T03:56:32;18.21;55.51
65239;SHT30;51827;51.186;6.926;2022-11-21T03:57:32;18.24;55.51
65239;SHT30;51827;51.186;6.926;2022-11-21T03:58:33;18.24;55.50
65239;SHT30;51827;51.186;6.926;2022-11-21T03:59:33;18.22;55.49
65239;SHT30;51827;51.186;6.926;2022-11-21T04:00:33;18.24;55.46
65239;SHT30;51827;51.186;6.926;2022-11-21T04:01:33;18.22;55.49
65239;SHT30;51827;51.186;6.926;2022-11-21T04:02:34;18.21;55.50
65239;SHT30;51827;51.186;6.926;2022-11-21T04:03:34;18.22;55.50
65239;SHT30;51827;51.186;6.926;2022-11-21T04:04:34;18.24;55.44
65239;SHT30;51827;51.186;6.926;2022-11-21T04:05:34;18.25;55.48
65239;SHT30;51827;51.186;6.926;2022-11-21T04:06:35;18.24;55.48
65239;SHT30;51827;51.186;6.926;2022-11-21T04:07:35;18.24;55.48
65239;SHT30;51827;51.186;6.926;2022-11-21T04:08:35;18.25;55.38
65239;SHT30;51827;51.186;6.926;2022-11-21T04:09:35;18.25;55.45
65239;SHT30;51827;51.186;6.926;2022-11-21T04:10:36;18.24;55.42
65239;SHT30;51827;51.186;6.926;2022-11-21T04:11:36;18.24;55.38
65239;SHT30;51827;51.186;6.926;2022-11-21T04:12:36;18.25;55.39
65239;SHT30;51827;51.186;6.926;2022-11-21T04:13:37;18.22;55.42
65239;SHT30;51827;51.186;6.926;2022-11-21T04:14:37;18.22;55.40
65239;SHT30;51827;51.186;6.926;2022-11-21T04:15:37;18.24;55.47
65239;SHT30;51827;51.186;6.926;2022-11-21T04:16:38;18.25;55.44
65239;SHT30;51827;51.186;6.926;2022-11-21T04:17:38;18.25;55.39
65239;SHT30;51827;51.186;6.926;2022-11-21T04:18:38;18.24;55.44
65239;SHT30;51827;51.186;6.926;2022-11-21T04:19:38;18.21;55.40
65239;SHT30;51827;51.186;6.926;2022-11-21T04:20:39;18.21;55.42
65239;SHT30;51827;51.186;6.926;2022-11-21T04:21:39;18.24;55.40
65239;SHT30;51827;51.186;6.926;2022-11-21T04:22:40;18.24;55.37
65239;SHT30;51827;51.186;6.926;2022-11-21T04:23:41;18.24;55.32
65239;SHT30;51827;51.186;6.926;2022-11-21T04:24:41;18.25;55.35
65239;SHT30;51827;51.186;6.926;2022-11-21T04:25:41;18.24;55.38
65239;SHT30;51827;51.186;6.926;2022-11-21T04:26:41;18.24;55.33
65239;SHT30;51827;51.186;6.926;2022-11-21T04:27:42;18.24;55.37
65239;SHT30;51827;51.186;6.926;2022-11-21T04:28:42;18.24;55.38
65239;SHT30;51827;51.186;6.926;2022-11-21T04:29:42;18.22;55.36
65239;SHT30;51827;51.186;6.926;2022-11-21T04:30:42;18.22;55.36
65239;SHT30;51827;51.186;6.926;2022-11-21T04:31:43;18.21;55.36
65239;SHT30;51827;51.186;6.926;2022-11-21T04:32:43;18.24;55.36
65239;SHT30;51827;51.186;6.926;2022-11-21T04:33:43;18.20;55.37
65239;SHT30;51827;51.186;6.926;2022-11-21T04:34:43;18.22;55.34
65239;SHT30;51827;51.186;6.926;2022-11-21T04:35:45;18.22;55.37
65239;SHT30;51827;51.186;6.926;2022-11-21T04:36:45;18.21;55.39
65239;SHT30;51827;51.186;6.926;2022-11-21T04:37:45;18.22;55.39
65239;SHT30;51827;51.186;6.926;2022-11-21T04:38:46;18.20;55.36
65239;SHT30;51827;51.186;6.926;2022-11-21T04:39:46;18.21;55.39
65239;SHT30;51827;51.186;6.926;2022-11-21T04:40:46;18.21;55.35
65239;SHT30;51827;51.186;6.926;2022-11-21T04:41:46;18.20;55.38
65239;SHT30;51827;51.186;6.926;2022-11-21T04:42:47;18.21;55.34
65239;SHT30;51827;51.186;6.926;2022-11-21T04:43:47;18.22;55.33
65239;SHT30;51827;51.186;6.926;2022-11-21T04:44:47;18.24;55.31
65239;SHT30;51827;51.186;6.926;2022-11-21T04:45:48;18.21;55.32
65239;SHT30;51827;51.186;6.926;2022-11-21T04:46:48;18.20;55.31
65239;SHT30;51827;51.186;6.926;2022-11-21T04:47:48;18.20;55.33
65239;SHT30;51827;51.186;6.926;2022-11-21T04:48:48;18.22;55.32
65239;SHT30;51827;51.186;6.926;2022-11-21T04:49:49;18.22;55.31
65239;SHT30;51827;51.186;6.926;2022-11-21T04:50:49;18.21;55.32
65239;SHT30;51827;51.186;6.926;2022-11-21T04:51:49;18.20;55.32
65239;SHT30;51827;51.186;6.926;2022-11-21T04:52:50;18.20;55.27
65239;SHT30;51827;51.186;6.926;2022-11-21T04:53:51;18.20;55.25
65239;SHT30;51827;51.186;6.926;2022-11-21T04:54:51;18.21;55.26
65239;SHT30;51827;51.186;6.926;2022-11-21T04:55:51;18.21;55.25
65239;SHT30;51827;51.186;6.926;2022-11-21T04:56:52;18.22;55.23
65239;SHT30;51827;51.186;6.926;2022-11-21T04:57:52;18.22;55.27
65239;SHT30;51827;51.186;6.926;2022-11-21T04:58:52;18.22;55.21
65239;SHT30;51827;51.186;6.926;2022-11-21T04:59:53;18.24;55.21
65239;SHT30;51827;51.186;6.926;2022-11-21T05:00:53;18.22;55.28
65239;SHT30;51827;51.186;6.926;2022-11-21T05:01:53;18.21;55.27
65239;SHT30;51827;51.186;6.926;2022-11-21T05:02:54;18.21;55.23
65239;SHT30;51827;51.186;6.926;2022-11-21T05:03:54;18.21;55.21
65239;SHT30;51827;51.186;6.926;2022-11-21T05:04:54;18.21;55.24
65239;SHT30;51827;51.186;6.926;2022-11-21T05:05:54;18.24;55.23
65239;SHT30;51827;51.186;6.926;2022-11-21T05:06:54;18.20;55.22
65239;SHT30;51827;51.186;6.926;2022-11-21T05:07:55;18.22;55.20
65239;SHT30;51827;51.186;6.926;2022-11-21T05:08:55;18.20;55.23
65239;SHT30;51827;51.186;6.926;2022-11-21T05:09:55;18.22;55.21
65239;SHT30;51827;51.186;6.926;2022-11-21T05:10:55;18.20;55.18
65239;SHT30;51827;51.186;6.926;2022-11-21T05:11:56;18.22;55.20
65239;SHT30;51827;51.186;6.926;2022-11-21T05:12:59;18.20;55.20
65239;SHT30;51827;51.186;6.926;2022-11-21T05:13:59;18.21;55.10
65239;SHT30;51827;51.186;6.926;2022-11-21T05:14:59;18.22;55.08
65239;SHT30;51827;51.186;6.926;2022-11-21T05:16:00;18.22;55.19
65239;SHT30;51827;51.186;6.926;2022-11-21T05:17:00;18.18;55.22
65239;SHT30;51827;51.186;6.926;2022-11-21T05:18:00;18.21;55.24
65239;SHT30;51827;51.186;6.926;2022-11-21T05:19:00;18.21;55.15
65239;SHT30;51827;51.186;6.926;2022-11-21T05:20:01;18.21;55.17
65239;SHT30;51827;51.186;6.926;2022-11-21T05:21:01;18.25;55.18
65239;SHT30;51827;51.186;6.926;2022-11-21T05:22:02;18.24;55.17
65239;SHT30;51827;51.186;6.926;2022-11-21T05:23:02;18.21;55.17
65239;SHT30;51827;51.186;6.926;2022-11-21T05:24:02;18.21;55.17
65239;SHT30;51827;51.186;6.926;2022-11-21T05:25:03;18.21;55.15
65239;SHT30;51827;51.186;6.926;2022-11-21T05:26:03;18.18;55.14
65239;SHT30;51827;51.186;6.926;2022-11-21T05:27:04;18.21;55.18
65239;SHT30;51827;51.186;6.926;2022-11-21T05:28:04;18.20;55.14
65239;SHT30;51827;51.186;6.926;2022-11-21T05:29:04;18.20;55.18
65239;SHT30;51827;51.186;6.926;2022-11-21T05:30:05;18.21;55.13
65239;SHT30;51827;51.186;6.926;2022-11-21T05:31:05;18.20;55.16
65239;SHT30;51827;51.186;6.926;2022-11-21T05:32:06;18.22;55.17
65239;SHT30;51827;51.186;6.926;2022-11-21T05:33:06;18.20;55.18
65239;SHT30;51827;51.186;6.926;2022-11-21T05:34:06;18.21;55.11
65239;SHT30;51827;51.186;6.926;2022-11-21T05:35:06;18.21;55.11
65239;SHT30;51827;51.186;6.926;2022-11-21T05:36:07;18.20;55.11
65239;SHT30;51827;51.186;6.926;2022-11-21T05:37:07;18.22;55.10
65239;SHT30;51827;51.186;6.926;2022-11-21T05:38:07;18.22;55.09
65239;SHT30;51827;51.186;6.926;2022-11-21T05:39:07;18.20;55.13
65239;SHT30;51827;51.186;6.926;2022-11-21T05:40:08;18.22;55.10
65239;SHT30;51827;51.186;6.926;2022-11-21T05:41:09;18.21;54.98
65239;SHT30;51827;51.186;6.926;2022-11-21T05:42:09;18.21;55.05
65239;SHT30;51827;51.186;6.926;2022-11-21T05:43:10;18.24;55.05
65239;SHT30;51827;51.186;6.926;2022-11-21T05:44:11;18.22;55.02
65239;SHT30;51827;51.186;6.926;2022-11-21T05:45:11;18.24;55.14
65239;SHT30;51827;51.186;6.926;2022-11-21T05:46:19;18.22;55.08
65239;SHT30;51827;51.186;6.926;2022-11-21T05:47:19;18.25;55.10
65239;SHT30;51827;51.186;6.926;2022-11-21T05:48:19;18.22;55.12
65239;SHT30;51827;51.186;6.926;2022-11-21T05:49:20;18.24;55.14
65239;SHT30;51827;51.186;6.926;2022-11-21T05:50:20;18.24;55.14
65239;SHT30;51827;51.186;6.926;2022-11-21T05:51:21;18.24;55.13
65239;SHT30;51827;51.186;6.926;2022-11-21T05:52:21;18.25;55.14
65239;SHT30;51827;51.186;6.926;2022-11-21T05:53:22;18.25;55.19
65239;SHT30;51827;51.186;6.926;2022-11-21T05:54:22;18.25;55.14
65239;SHT30;51827;51.186;6.926;2022-11-21T05:55:22;18.25;55.20
65239;SHT30;51827;51.186;6.926;2022-11-21T05:56:22;18.24;55.20
65239;SHT30;51827;51.186;6.926;2022-11-21T05:57:22;18.25;55.20
65239;SHT30;51827;51.186;6.926;2022-11-21T05:58:23;18.24;55.20
65239;SHT30;51827;51.186;6.926;2022-11-21T05:59:23;18.21;55.29
65239;SHT30;51827;51.186;6.926;2022-11-21T06:00:23;18.24;55.24
65239;SHT30;51827;51.186;6.926;2022-11-21T06:01:24;18.25;55.24
65239;SHT30;51827;51.186;6.926;2022-11-21T06:02:24;18.24;55.25
65239;SHT30;51827;51.186;6.926;2022-11-21T06:03:26;18.25;55.29
65239;SHT30;51827;51.186;6.926;2022-11-21T06:04:26;18.25;55.31
65239;SHT30;51827;51.186;6.926;2022-11-21T06:05:26;18.30;55.27
65239;SHT30;51827;51.186;6.926;2022-11-21T06:06:27;18.25;55.28
65239;SHT30;51827;51.186;6.926;2022-11-21T06:07:27;18.28;55.25
65239;SHT30;51827;51.186;6.926;2022-11-21T06:08:28;18.30;55.29
65239;SHT30;51827;51.186;6.926;2022-11-21T06:09:29;18.27;55.28
65239;SHT30;51827;51.186;6.926;2022-11-21T06:10:29;18.27;55.32
65239;SHT30;51827;51.186;6.926;2022-11-21T06:11:29;18.28;55.30
65239;SHT30;51827;51.186;6.926;2022-11-21T06:12:30;18.27;55.29
65239;SHT30;51827;51.186;6.926;2022-11-21T06:13:31;18.28;55.26
65239;SHT30;51827;51.186;6.926;2022-11-21T06:14:31;18.27;55.28
65239;SHT30;51827;51.186;6.926;2022-11-21T06:15:31;18.28;55.25
65239;SHT30;51827;51.186;6.926;2022-11-21T06:16:31;18.31;55.25
65239;SHT30;51827;51.186;6.926;2022-11-21T06:17:32;18.28;55.21
65239;SHT30;51827;51.186;6.926;2022-11-21T06:18:34;18.32;55.23
65239;SHT30;51827;51.186;6.926;2022-11-21T06:19:34;18.30;55.29
65239;SHT30;51827;51.186;6.926;2022-11-21T06:20:34;18.30;55.26
65239;SHT30;51827;51.186;6.926;2022-11-21T06:21:35;18.30;55.28
65239;SHT30;51827;51.186;6.926;2022-11-21T06:22:35;18.30;55.32
65239;SHT30;51827;51.186;6.926;2022-11-21T06:23:35;18.28;55.29
65239;SHT30;51827;51.186;6.926;2022-11-21T06:24:35;18.28;55.31
65239;SHT30;51827;51.186;6.926;2022-11-21T06:25:36;18.31;55.30
65239;SHT30;51827;51.186;6.926;2022-11-21T06:26:36;18.27;55.30
65239;SHT30;51827;51.186;6.926;2022-11-21T06:27:36;18.30;55.34
65239;SHT30;51827;51.186;6.926;2022-11-21T06:28:40;18.30;55.34
65239;SHT30;51827;51.186;6.926;2022-11-21T06:29:40;18.28;55.33
65239;SHT30;51827;51.186;6.926;2022-11-21T06:30:41;18.31;55.34
65239;SHT30;51827;51.186;6.926;2022-11-21T06:31:41;18.30;55.33
65239;SHT30;51827;51.186;6.926;2022-11-21T06:32:41;18.31;55.32
65239;SHT30;51827;51.186;6.926;2022-11-21T06:33:42;18.28;55.34
65239;SHT30;51827;51.186;6.926;2022-11-21T06:34:42;18.31;55.33